createdAt,value
2023-05-21T00:09:13.598Z,99425.92
2023-05-21T00:18:47.833Z,99417.26
2023-05-21T00:28:28.169Z,99406.81
2023-05-21T00:37:55.005Z,99404.94
2023-05-21T00:47:28.470Z,99399.88
2023-05-21T00:57:08.072Z,99389.14
2023-05-21T01:06:36.659Z,99382.84
2023-05-21T01:16:11.095Z,99376.52
2023-05-21T01:25:43.598Z,99373.73
2023-05-21T01:35:17.770Z,99358.19
2023-05-21T01:44:50.391Z,99350.56
2023-05-21T01:54:23.949Z,99341.59
2023-05-21T02:04:00.440Z,99347.82
2023-05-21T02:13:33.091Z,99341.58
2023-05-21T02:23:05.840Z,99341.88
2023-05-21T02:32:40.483Z,99340.48
2023-05-21T02:42:15.642Z,99336.02
2023-05-21T02:51:50.469Z,99340.70
2023-05-21T03:01:23.036Z,99337.74
2023-05-21T03:10:59.117Z,99325.88
2023-05-21T03:20:31.247Z,99329.95
2023-05-21T03:30:07.034Z,99331.04
2023-05-21T03:39:39.402Z,99326.11
2023-05-21T03:49:15.384Z,99316.64
2023-05-21T03:58:48.064Z,99315.87
2023-05-21T03:59:50.686Z,99317.06
2023-05-21T04:09:24.295Z,99320.59
2023-05-21T04:19:00.562Z,99324.33
2023-05-21T04:28:35.213Z,99329.06
2023-05-21T04:38:08.429Z,99334.61
2023-05-21T04:47:42.937Z,99335.55
2023-05-21T04:57:17.664Z,99327.45
2023-05-21T05:06:54.142Z,99324.88
2023-05-21T05:16:27.655Z,99323.41
2023-05-21T05:26:02.644Z,99311.05
2023-05-21T05:35:39.545Z,99309.48
2023-05-21T05:45:12.137Z,99317.17
2023-05-21T05:46:16.318Z,99318.42
2023-05-21T05:47:18.638Z,99311.61
2023-05-21T05:48:22.712Z,99310.64
2023-05-21T05:49:26.665Z,99314.48
2023-05-21T05:50:30.612Z,99318.27
2023-05-21T05:51:34.537Z,99316.20
2023-05-21T05:52:36.837Z,99316.59
2023-05-21T05:53:41.910Z,99320.94
2023-05-21T05:54:45.712Z,99325.46
2023-05-21T05:55:48.065Z,99321.75
2023-05-21T05:56:52.125Z,99323.41
2023-05-21T06:06:22.790Z,99323.63
2023-05-21T06:07:25.311Z,99326.00
2023-05-21T06:08:27.792Z,99325.71
2023-05-21T06:09:31.859Z,99326.95
2023-05-21T06:10:35.952Z,99330.98
2023-05-21T06:11:38.295Z,99329.63
2023-05-21T06:12:40.772Z,99327.31
2023-05-21T06:13:43.248Z,99324.92
2023-05-21T06:14:45.647Z,99329.39
2023-05-21T06:15:49.722Z,99331.94
2023-05-21T06:16:52.023Z,99334.39
2023-05-21T06:17:54.522Z,99329.20
2023-05-21T06:18:58.604Z,99332.41
2023-05-21T06:20:00.895Z,99333.13
2023-05-21T06:21:04.982Z,99332.71
2023-05-21T06:22:07.362Z,99331.50
2023-05-21T06:23:09.803Z,99328.86
2023-05-21T06:24:12.250Z,99328.56
2023-05-21T06:25:14.704Z,99334.47
2023-05-21T06:26:18.807Z,99335.55
2023-05-21T06:27:21.191Z,99328.04
2023-05-21T06:28:23.655Z,99332.63
2023-05-21T06:29:27.757Z,99333.81
2023-05-21T06:30:31.697Z,99335.88
2023-05-21T06:31:35.613Z,99336.14
2023-05-21T06:32:38.132Z,99332.06
2023-05-21T06:33:43.152Z,99336.06
2023-05-21T06:34:45.350Z,99334.19
2023-05-21T06:35:49.380Z,99333.93
2023-05-21T06:36:54.340Z,99332.31
2023-05-21T06:37:58.179Z,99334.37
2023-05-21T06:39:02.142Z,99333.66
2023-05-21T06:40:06.021Z,99335.83
2023-05-21T06:41:08.365Z,99333.97
2023-05-21T06:42:10.814Z,99329.27
2023-05-21T06:43:13.265Z,99335.78
2023-05-21T06:44:17.362Z,99332.95
2023-05-21T06:45:21.294Z,99331.77
2023-05-21T06:46:23.696Z,99335.91
2023-05-21T06:47:28.786Z,99332.30
2023-05-21T06:48:32.632Z,99338.39
2023-05-21T06:49:36.595Z,99343.64
2023-05-21T06:50:40.529Z,99342.48
2023-05-21T06:51:44.489Z,99340.75
2023-05-21T06:52:46.806Z,99345.61
2023-05-21T06:53:50.848Z,99342.94
2023-05-21T06:54:54.793Z,99343.83
2023-05-21T06:55:57.189Z,99347.19
2023-05-21T06:57:01.190Z,99346.22
2023-05-21T07:06:32.161Z,99348.05
2023-05-21T07:07:36.279Z,99350.75
2023-05-21T07:08:40.240Z,99354.22
2023-05-21T07:09:42.609Z,99355.77
2023-05-21T07:10:46.853Z,99351.17
2023-05-21T07:11:50.088Z,99348.30
2023-05-21T07:12:54.082Z,99352.56
2023-05-21T07:13:58.078Z,99353.22
2023-05-21T07:15:00.370Z,99351.70
2023-05-21T07:16:04.450Z,99353.44
2023-05-21T07:17:06.844Z,99355.11
2023-05-21T07:18:09.306Z,99350.13
2023-05-21T07:19:11.769Z,99348.59
2023-05-21T07:20:15.839Z,99352.50
2023-05-21T07:21:18.129Z,99356.67
2023-05-21T07:22:20.541Z,99353.05
2023-05-21T07:23:24.647Z,99355.23
2023-05-21T07:24:26.957Z,99358.88
2023-05-21T07:25:29.400Z,99354.43
2023-05-21T07:26:33.497Z,99348.06
2023-05-21T07:27:35.854Z,99353.03
2023-05-21T07:28:38.299Z,99349.50
2023-05-21T07:29:42.378Z,99348.81
2023-05-21T07:30:45.740Z,99350.14
2023-05-21T07:31:49.668Z,99348.61
2023-05-21T07:32:53.568Z,99354.76
2023-05-21T07:33:55.936Z,99351.52
2023-05-21T07:34:58.413Z,99349.66
2023-05-21T07:36:02.467Z,99346.30
2023-05-21T07:37:06.392Z,99348.31
2023-05-21T07:38:10.336Z,99348.27
2023-05-21T07:39:12.664Z,99352.02
2023-05-21T07:40:16.749Z,99354.39
2023-05-21T07:41:19.144Z,99348.78
2023-05-21T07:42:23.182Z,99353.69
2023-05-21T07:43:27.115Z,99346.53
2023-05-21T07:44:30.484Z,99345.80
2023-05-21T07:45:32.910Z,99345.30
2023-05-21T07:46:35.456Z,99342.41
2023-05-21T07:47:39.549Z,99347.02
2023-05-21T07:48:43.507Z,99349.75
2023-05-21T07:49:45.871Z,99343.72
2023-05-21T07:50:49.896Z,99347.14
2023-05-21T07:51:53.929Z,99349.03
2023-05-21T07:52:56.269Z,99344.05
2023-05-21T07:53:58.725Z,99345.55
2023-05-21T07:55:02.806Z,99341.95
2023-05-21T07:56:06.683Z,99342.11
2023-05-21T07:57:09.027Z,99346.89
2023-05-21T07:58:13.103Z,99341.38
2023-05-21T07:59:17.145Z,99338.34
2023-05-21T08:00:19.474Z,99340.22
2023-05-21T08:01:23.522Z,99344.63
2023-05-21T08:02:25.970Z,99342.88
2023-05-21T08:03:28.482Z,99339.94
2023-05-21T08:04:30.850Z,99346.55
2023-05-21T08:05:35.005Z,99342.02
2023-05-21T08:06:38.724Z,99343.61
2023-05-21T08:07:42.694Z,99343.26
2023-05-21T08:08:46.658Z,99341.95
2023-05-21T08:09:50.510Z,99338.88
2023-05-21T08:10:52.847Z,99343.63
2023-05-21T08:11:55.296Z,99339.53
2023-05-21T08:12:57.745Z,99341.79
2023-05-21T08:14:01.869Z,99341.20
2023-05-21T08:15:05.706Z,99339.94
2023-05-21T08:16:09.085Z,99345.83
2023-05-21T08:17:12.338Z,99345.77
2023-05-21T08:18:16.329Z,99340.64
2023-05-21T08:19:21.347Z,99343.84
2023-05-21T08:20:25.154Z,99340.39
2023-05-21T08:21:27.557Z,99345.31
2023-05-21T08:22:29.928Z,99341.45
2023-05-21T08:23:33.384Z,99342.63
2023-05-21T08:24:35.744Z,99338.22
2023-05-21T08:25:39.985Z,99343.19
2023-05-21T08:26:43.986Z,99340.04
2023-05-21T08:27:46.301Z,99344.26
2023-05-21T08:28:48.729Z,99350.36
2023-05-21T08:29:51.223Z,99343.07
2023-05-21T08:30:55.255Z,99342.82
2023-05-21T08:31:57.593Z,99345.58
2023-05-21T08:33:00.052Z,99339.92
2023-05-21T08:34:02.464Z,99345.66
2023-05-21T08:35:06.579Z,99344.94
2023-05-21T08:36:09.906Z,99353.20
2023-05-21T08:37:13.894Z,99345.60
2023-05-21T08:38:17.823Z,99339.64
2023-05-21T08:39:21.987Z,99340.95
2023-05-21T08:40:25.983Z,99338.22
2023-05-21T08:41:29.870Z,99336.88
2023-05-21T08:42:36.772Z,99341.17
2023-05-21T08:43:37.316Z,99343.14
2023-05-21T08:44:41.285Z,99346.47
2023-05-21T08:45:46.227Z,99344.72
2023-05-21T08:46:48.480Z,99339.55
2023-05-21T08:47:50.952Z,99337.99
2023-05-21T08:48:54.432Z,99342.70
2023-05-21T08:49:56.847Z,99338.53
2023-05-21T08:51:00.930Z,99337.63
2023-05-21T08:52:03.266Z,99337.07
2023-05-21T08:53:15.751Z,99337.52
2023-05-21T08:54:11.280Z,99334.20
2023-05-21T08:55:13.712Z,99335.45
2023-05-21T08:56:16.149Z,99332.31
2023-05-21T08:57:20.222Z,99330.34
2023-05-21T08:58:22.579Z,99334.27
2023-05-21T08:59:26.680Z,99331.27
2023-05-21T09:00:29.019Z,99334.44
2023-05-21T09:01:33.152Z,99330.47
2023-05-21T09:02:35.507Z,99334.89
2023-05-21T09:03:37.933Z,99333.13
2023-05-21T09:04:42.074Z,99329.65
2023-05-21T09:05:46.036Z,99330.03
2023-05-21T09:06:48.396Z,99332.03
2023-05-21T09:07:52.439Z,99328.56
2023-05-21T09:08:53.371Z,99337.45
2023-05-21T09:09:57.448Z,99334.22
2023-05-21T09:10:59.761Z,99331.22
2023-05-21T09:12:02.301Z,99329.70
2023-05-21T09:13:04.739Z,99329.38
2023-05-21T09:14:07.271Z,99329.85
2023-05-21T09:15:11.398Z,99327.11
2023-05-21T09:16:15.354Z,99327.15
2023-05-21T09:17:17.702Z,99324.59
2023-05-21T09:26:50.695Z,99325.13
2023-05-21T09:27:53.244Z,99329.66
2023-05-21T09:28:56.718Z,99323.73
2023-05-21T09:29:59.117Z,99330.59
2023-05-21T09:31:03.328Z,99326.20
2023-05-21T09:40:36.779Z,99333.69
2023-05-21T09:41:38.988Z,99332.93
2023-05-21T09:42:43.068Z,99338.25
2023-05-21T09:43:45.409Z,99337.85
2023-05-21T09:44:47.880Z,99337.55
2023-05-21T09:45:51.391Z,99337.58
2023-05-21T09:46:56.517Z,99343.50
2023-05-21T09:48:01.316Z,99338.89
2023-05-21T09:49:03.580Z,99334.00
2023-05-21T09:50:07.661Z,99336.34
2023-05-21T09:51:10.007Z,99331.89
2023-05-21T09:52:12.457Z,99331.73
2023-05-21T09:53:14.957Z,99328.48
2023-05-21T09:54:17.481Z,99326.81
2023-05-21T09:55:19.889Z,99333.14
2023-05-21T09:56:22.411Z,99330.87
2023-05-21T09:57:24.837Z,99331.64
2023-05-21T09:58:28.928Z,99335.16
2023-05-21T09:59:31.323Z,99330.45
2023-05-21T10:00:35.551Z,99331.83
2023-05-21T10:01:37.782Z,99327.55
2023-05-21T10:02:40.302Z,99327.56
2023-05-21T10:03:42.767Z,99328.48
2023-05-21T10:04:46.879Z,99327.82
2023-05-21T10:05:50.857Z,99326.36
2023-05-21T10:06:55.816Z,99327.98
2023-05-21T10:07:58.068Z,99320.71
2023-05-21T10:09:03.942Z,99322.95
2023-05-21T10:10:04.560Z,99317.73
2023-05-21T10:11:08.651Z,99323.45
2023-05-21T10:12:11.055Z,99322.48
2023-05-21T10:13:15.153Z,99321.38
2023-05-21T10:14:22.350Z,99318.66
2023-05-21T10:15:24.445Z,99321.37
2023-05-21T10:16:27.959Z,99320.89
2023-05-21T10:17:33.021Z,99321.05
2023-05-21T10:18:36.267Z,99316.42
2023-05-21T10:19:40.284Z,99315.39
2023-05-21T10:20:45.256Z,99314.19
2023-05-21T10:21:50.009Z,99315.20
2023-05-21T10:22:54.031Z,99317.08
2023-05-21T10:23:57.968Z,99320.17
2023-05-21T10:25:02.865Z,99315.89
2023-05-21T10:26:05.175Z,99312.52
2023-05-21T10:27:07.639Z,99312.17
2023-05-21T10:28:11.909Z,99305.75
2023-05-21T10:30:20.247Z,99312.34
2023-05-21T10:31:25.078Z,99306.86
2023-05-21T10:32:27.489Z,99311.77
2023-05-21T10:33:32.452Z,99305.75
2023-05-21T10:34:34.693Z,99303.75
2023-05-21T10:35:38.257Z,99305.03
2023-05-21T10:36:42.176Z,99306.76
2023-05-21T10:37:46.104Z,99309.58
2023-05-21T10:38:50.100Z,99308.94
2023-05-21T10:39:53.437Z,99306.29
2023-05-21T10:40:57.431Z,99306.13
2023-05-21T10:42:01.426Z,99305.25
2023-05-21T10:43:05.399Z,99305.52
2023-05-21T10:44:09.478Z,99299.02
2023-05-21T10:45:12.726Z,99301.58
2023-05-21T10:46:15.166Z,99302.19
2023-05-21T10:47:17.528Z,99297.66
2023-05-21T10:48:21.662Z,99305.88
2023-05-21T10:49:25.041Z,99300.11
2023-05-21T10:50:28.400Z,99303.98
2023-05-21T10:51:30.865Z,99304.42
2023-05-21T10:52:34.958Z,99300.31
2023-05-21T10:53:37.286Z,99296.34
2023-05-21T10:54:39.769Z,99299.34
2023-05-21T10:55:42.246Z,99297.45
2023-05-21T10:56:44.720Z,99300.29
2023-05-21T10:57:48.244Z,99303.13
2023-05-21T10:58:51.589Z,99302.08
2023-05-21T10:59:54.990Z,99301.66
2023-05-21T11:00:57.375Z,99304.92
2023-05-21T11:01:59.923Z,99297.70
2023-05-21T11:03:02.397Z,99306.34
2023-05-21T11:04:04.878Z,99300.68
2023-05-21T11:05:07.412Z,99301.60
2023-05-21T11:06:11.449Z,99305.30
2023-05-21T11:07:13.837Z,99304.04
2023-05-21T11:08:16.378Z,99301.20
2023-05-21T11:09:18.800Z,99295.13
2023-05-21T11:10:21.330Z,99297.69
2023-05-21T11:11:25.410Z,99302.04
2023-05-21T11:12:29.438Z,99299.73
2023-05-21T11:13:31.794Z,99300.66
2023-05-21T11:14:36.009Z,99297.20
2023-05-21T11:15:38.241Z,99293.55
2023-05-21T11:16:40.743Z,99288.64
2023-05-21T11:17:44.841Z,99283.20
2023-05-21T11:18:47.230Z,99290.09
2023-05-21T11:19:51.201Z,99289.25
2023-05-21T11:20:53.592Z,99288.05
2023-05-21T11:21:56.089Z,99290.70
2023-05-21T11:22:58.550Z,99292.23
2023-05-21T11:24:01.074Z,99283.28
2023-05-21T11:25:03.570Z,99288.16
2023-05-21T11:26:06.036Z,99283.81
2023-05-21T11:27:08.605Z,99281.28
2023-05-21T11:28:15.162Z,99281.19
2023-05-21T11:29:18.998Z,99276.94
2023-05-21T11:30:21.349Z,99281.25
2023-05-21T11:31:25.895Z,99277.16
2023-05-21T11:32:28.273Z,99282.30
2023-05-21T11:33:32.384Z,99282.20
2023-05-21T11:34:36.348Z,99282.98
2023-05-21T11:35:40.313Z,99280.07
2023-05-21T11:36:42.701Z,99280.30
2023-05-21T11:37:50.810Z,99279.09
2023-05-21T11:38:53.241Z,99274.75
2023-05-21T11:39:55.679Z,99277.20
2023-05-21T11:40:59.783Z,99278.88
2023-05-21T11:42:04.267Z,99279.95
2023-05-21T11:43:04.738Z,99282.71
2023-05-21T11:44:07.219Z,99280.26
2023-05-21T11:45:11.298Z,99280.47
2023-05-21T11:46:13.642Z,99279.22
2023-05-21T11:47:17.128Z,99282.02
2023-05-21T11:48:19.562Z,99276.55
2023-05-21T11:49:23.611Z,99276.91
2023-05-21T11:50:26.004Z,99282.19
2023-05-21T11:51:30.058Z,99280.30
2023-05-21T11:52:32.438Z,99282.19
2023-05-21T11:53:34.961Z,99280.73
2023-05-21T11:54:37.351Z,99279.05
2023-05-21T11:55:39.880Z,99276.56
2023-05-21T11:56:42.379Z,99278.93
2023-05-21T11:57:46.492Z,99273.59
2023-05-21T11:58:48.873Z,99276.81
2023-05-21T11:59:51.341Z,99277.23
2023-05-21T12:00:55.458Z,99282.62
2023-05-21T12:01:59.434Z,99280.94
2023-05-21T12:03:03.455Z,99272.64
2023-05-21T12:04:07.452Z,99276.03
2023-05-21T12:05:13.130Z,99274.31
2023-05-21T12:06:15.405Z,99275.94
2023-05-21T12:07:19.333Z,99280.58
2023-05-21T12:08:23.355Z,99277.80
2023-05-21T12:09:25.780Z,99275.69
2023-05-21T12:10:28.235Z,99272.85
2023-05-21T12:11:30.736Z,99280.34
2023-05-21T12:12:45.894Z,99279.19
2023-05-21T12:13:35.775Z,99277.29
2023-05-21T12:14:38.177Z,99275.91
2023-05-21T12:15:40.716Z,99276.91
2023-05-21T12:16:43.242Z,99279.05
2023-05-21T12:17:45.686Z,99277.48
2023-05-21T12:18:49.793Z,99277.00
2023-05-21T12:19:53.765Z,99278.44
2023-05-21T12:20:56.112Z,99275.70
2023-05-21T12:22:00.249Z,99275.74
2023-05-21T12:23:04.277Z,99274.98
2023-05-21T12:24:08.198Z,99270.72
2023-05-21T12:25:12.182Z,99269.75
2023-05-21T12:26:16.130Z,99272.13
2023-05-21T12:27:20.091Z,99272.19
2023-05-21T12:28:22.479Z,99274.23
2023-05-21T12:29:24.987Z,99272.25
2023-05-21T12:30:27.503Z,99280.91
2023-05-21T12:31:30.002Z,99280.98
2023-05-21T12:32:32.501Z,99276.59
2023-05-21T12:33:34.933Z,99278.66
2023-05-21T12:34:37.466Z,99280.17
2023-05-21T12:35:41.611Z,99278.80
2023-05-21T12:36:43.948Z,99277.53
2023-05-21T12:37:46.421Z,99279.75
2023-05-21T12:38:50.477Z,99275.30
2023-05-21T12:39:52.830Z,99272.34
2023-05-21T12:40:56.952Z,99278.55
2023-05-21T12:42:00.864Z,99275.47
2023-05-21T12:43:04.822Z,99276.90
2023-05-21T12:44:07.145Z,99275.70
2023-05-21T12:45:11.258Z,99274.24
2023-05-21T12:46:15.212Z,99278.86
2023-05-21T12:47:17.592Z,99276.84
2023-05-21T12:48:20.114Z,99275.10
2023-05-21T12:49:24.176Z,99273.03
2023-05-21T12:50:28.112Z,99272.13
2023-05-21T12:51:30.522Z,99274.47
2023-05-21T12:52:34.518Z,99273.92
2023-05-21T12:53:36.914Z,99271.17
2023-05-21T12:54:40.984Z,99276.16
2023-05-21T12:55:43.344Z,99277.42
2023-05-21T12:56:45.832Z,99279.24
2023-05-21T12:57:48.305Z,99273.22
2023-05-21T12:58:52.380Z,99264.58
2023-05-21T12:59:56.323Z,99267.14
2023-05-21T13:01:00.974Z,99268.33
2023-05-21T13:02:04.222Z,99264.94
2023-05-21T13:03:08.275Z,99266.86
2023-05-21T13:04:10.556Z,99269.52
2023-05-21T13:05:13.048Z,99271.56
2023-05-21T13:06:15.574Z,99266.33
2023-05-21T13:07:18.063Z,99269.65
2023-05-21T13:08:22.143Z,99267.16
2023-05-21T13:09:26.140Z,99266.48
2023-05-21T13:10:28.532Z,99266.84
2023-05-21T13:11:31.000Z,99263.32
2023-05-21T13:12:33.516Z,99260.49
2023-05-21T13:13:37.613Z,99258.15
2023-05-21T13:14:40.100Z,99260.57
2023-05-21T13:15:42.628Z,99258.13
2023-05-21T13:16:45.085Z,99256.88
2023-05-21T13:17:50.323Z,99259.98
2023-05-21T13:18:53.247Z,99259.13
2023-05-21T13:19:55.501Z,99258.33
2023-05-21T13:20:59.578Z,99261.02
2023-05-21T13:22:03.564Z,99258.15
2023-05-21T13:23:07.247Z,99256.86
2023-05-21T13:24:08.474Z,99260.34
2023-05-21T13:25:11.034Z,99261.81
2023-05-21T13:26:15.108Z,99260.08
2023-05-21T13:27:17.518Z,99258.63
2023-05-21T13:28:20.024Z,99253.66
2023-05-21T13:29:23.943Z,99253.92
2023-05-21T13:30:27.920Z,99251.25
2023-05-21T13:31:35.864Z,99252.92
2023-05-21T13:32:39.748Z,99246.06
2023-05-21T13:33:43.662Z,99251.19
2023-05-21T13:34:45.976Z,99250.73
2023-05-21T13:35:48.459Z,99250.91
2023-05-21T13:36:52.526Z,99251.02
2023-05-21T13:37:54.920Z,99244.77
2023-05-21T13:38:57.383Z,99245.82
2023-05-21T13:40:01.601Z,99242.59
2023-05-21T13:41:05.536Z,99241.45
2023-05-21T13:42:07.853Z,99246.22
2023-05-21T13:43:10.399Z,99243.88
2023-05-21T13:44:14.463Z,99242.59
2023-05-21T13:45:16.975Z,99241.30
2023-05-21T13:46:21.066Z,99248.20
2023-05-21T13:47:25.064Z,99251.37
2023-05-21T13:48:27.478Z,99246.52
2023-05-21T13:49:31.629Z,99242.19
2023-05-21T13:50:38.399Z,99243.97
2023-05-21T13:51:40.428Z,99238.95
2023-05-21T13:52:44.549Z,99241.31
2023-05-21T13:53:46.818Z,99240.50
2023-05-21T13:54:50.897Z,99235.25
2023-05-21T13:55:53.250Z,99241.91
2023-05-21T13:56:57.383Z,99239.19
2023-05-21T13:57:59.807Z,99239.45
2023-05-21T13:59:02.275Z,99240.40
2023-05-21T14:00:04.771Z,99238.45
2023-05-21T14:01:07.297Z,99243.82
2023-05-21T14:02:09.779Z,99243.65
2023-05-21T14:03:13.853Z,99241.13
2023-05-21T14:04:17.260Z,99243.09
2023-05-21T14:05:19.610Z,99245.47
2023-05-21T14:06:22.089Z,99242.20
2023-05-21T14:07:24.639Z,99241.05
2023-05-21T14:08:27.111Z,99240.34
2023-05-21T14:09:31.291Z,99239.41
2023-05-21T14:10:33.673Z,99242.99
2023-05-21T14:11:36.205Z,99238.48
2023-05-21T14:12:40.310Z,99235.83
2023-05-21T14:13:44.250Z,99237.91
2023-05-21T14:14:46.672Z,99234.62
2023-05-21T14:15:49.154Z,99236.02
2023-05-21T14:16:51.820Z,99237.22
2023-05-21T14:17:54.276Z,99235.16
2023-05-21T14:18:58.385Z,99232.75
2023-05-21T14:20:02.346Z,99234.66
2023-05-21T14:21:06.303Z,99236.42
2023-05-21T14:22:08.675Z,99236.41
2023-05-21T14:23:12.761Z,99232.41
2023-05-21T14:24:16.742Z,99233.01
2023-05-21T14:25:20.680Z,99235.95
2023-05-21T14:26:24.708Z,99236.23
2023-05-21T14:27:26.993Z,99241.03
2023-05-21T14:28:29.516Z,99234.20
2023-05-21T14:29:32.024Z,99232.74
2023-05-21T14:30:34.554Z,99232.63
2023-05-21T14:31:37.131Z,99235.13
2023-05-21T14:32:41.218Z,99236.34
2023-05-21T14:33:43.614Z,99237.30
2023-05-21T14:34:47.712Z,99236.60
2023-05-21T14:35:50.095Z,99237.94
2023-05-21T14:36:54.196Z,99239.46
2023-05-21T14:37:58.171Z,99235.32
2023-05-21T14:39:00.643Z,99235.00
2023-05-21T14:40:03.225Z,99235.99
2023-05-21T14:41:05.727Z,99233.69
2023-05-21T14:42:09.846Z,99235.64
2023-05-21T14:43:12.227Z,99234.88
2023-05-21T14:44:16.340Z,99234.02
2023-05-21T14:45:19.509Z,99234.45
2023-05-21T14:46:22.957Z,99235.94
2023-05-21T14:55:56.322Z,99232.75
2023-05-21T14:56:58.718Z,99231.51
2023-05-21T14:58:05.108Z,99234.25
2023-05-21T14:59:07.358Z,99234.16
2023-05-21T15:00:09.903Z,99229.97
2023-05-21T15:01:14.043Z,99230.95
2023-05-21T15:02:18.016Z,99231.27
2023-05-21T15:03:22.040Z,99230.44
2023-05-21T15:04:24.309Z,99227.66
2023-05-21T15:05:26.876Z,99231.72
2023-05-21T15:06:31.015Z,99227.41
2023-05-21T15:07:33.542Z,99222.50
2023-05-21T15:08:37.623Z,99223.50
2023-05-21T15:09:41.659Z,99221.70
2023-05-21T15:10:45.625Z,99220.86
2023-05-21T15:11:47.991Z,99218.88
2023-05-21T15:12:50.510Z,99222.43
2023-05-21T15:13:52.989Z,99219.03
2023-05-21T15:14:57.178Z,99215.08
2023-05-21T15:15:59.552Z,99217.65
2023-05-21T15:17:02.048Z,99216.41
2023-05-21T15:18:06.270Z,99217.88
2023-05-21T15:19:10.147Z,99217.39
2023-05-21T15:20:14.062Z,99219.10
2023-05-21T15:21:18.041Z,99215.26
2023-05-21T15:22:22.013Z,99216.48
2023-05-21T15:23:24.441Z,99218.68
2023-05-21T15:24:27.197Z,99219.70
2023-05-21T15:25:31.320Z,99222.05
2023-05-21T15:26:35.319Z,99219.20
2023-05-21T15:27:37.708Z,99218.28
2023-05-21T15:28:40.235Z,99223.98
2023-05-21T15:29:42.761Z,99219.44
2023-05-21T15:30:45.236Z,99220.28
2023-05-21T15:31:47.769Z,99216.04
2023-05-21T15:32:50.309Z,99220.42
2023-05-21T15:33:54.420Z,99216.70
2023-05-21T15:34:58.616Z,99214.31
2023-05-21T15:36:02.469Z,99214.86
2023-05-21T15:37:06.383Z,99217.13
2023-05-21T15:38:10.317Z,99215.88
2023-05-21T15:39:14.310Z,99211.64
2023-05-21T15:40:18.332Z,99213.20
2023-05-21T15:41:20.757Z,99212.98
2023-05-21T15:42:23.257Z,99207.71
2023-05-21T15:43:25.731Z,99208.52
2023-05-21T15:44:29.800Z,99207.49
2023-05-21T15:45:34.016Z,99207.46
2023-05-21T15:46:36.389Z,99208.64
2023-05-21T15:47:39.618Z,99206.30
2023-05-21T15:48:42.868Z,99205.50
2023-05-21T15:49:45.302Z,99208.22
2023-05-21T15:50:49.392Z,99199.84
2023-05-21T15:51:53.428Z,99200.63
2023-05-21T15:52:57.396Z,99198.39
2023-05-21T15:53:59.841Z,99197.83
2023-05-21T15:55:03.994Z,99200.34
2023-05-21T15:56:06.440Z,99204.02
2023-05-21T15:57:08.989Z,99202.48
2023-05-21T15:58:13.166Z,99200.23
2023-05-21T15:59:15.569Z,99199.79
2023-05-21T16:00:17.960Z,99200.70
2023-05-21T16:01:20.576Z,99199.96
2023-05-21T16:02:22.939Z,99200.00
2023-05-21T16:03:25.513Z,99201.12
2023-05-21T16:04:29.582Z,99207.41
2023-05-21T16:05:31.970Z,99202.94
2023-05-21T16:06:34.465Z,99203.63
2023-05-21T16:07:38.082Z,99201.90
2023-05-21T16:08:39.395Z,99204.19
2023-05-21T16:09:43.459Z,99205.99
2023-05-21T16:10:45.841Z,99208.31
2023-05-21T16:11:49.947Z,99206.64
2023-05-21T16:12:52.286Z,99205.60
2023-05-21T16:13:56.341Z,99206.53
2023-05-21T16:15:00.331Z,99207.02
2023-05-21T16:16:04.240Z,99208.91
2023-05-21T16:17:08.256Z,99209.78
2023-05-21T16:18:12.152Z,99210.27
2023-05-21T16:19:14.525Z,99209.99
2023-05-21T16:20:17.027Z,99214.48
2023-05-21T16:21:19.512Z,99210.53
2023-05-21T16:22:22.037Z,99209.34
2023-05-21T16:23:26.153Z,99208.60
2023-05-21T16:24:28.605Z,99212.72
2023-05-21T16:25:31.110Z,99214.17
2023-05-21T16:26:33.659Z,99212.45
2023-05-21T16:27:37.986Z,99208.31
2023-05-21T16:28:41.936Z,99208.31
2023-05-21T16:29:45.899Z,99208.85
2023-05-21T16:30:48.251Z,99207.41
2023-05-21T16:31:52.439Z,99208.04
2023-05-21T16:32:54.835Z,99207.70
2023-05-21T16:33:58.895Z,99205.91
2023-05-21T16:35:01.265Z,99206.27
2023-05-21T16:36:03.765Z,99204.78
2023-05-21T16:37:07.912Z,99205.90
2023-05-21T16:38:12.013Z,99202.80
2023-05-21T16:39:16.021Z,99203.22
2023-05-21T16:40:18.383Z,99205.59
2023-05-21T16:41:22.489Z,99205.17
2023-05-21T16:42:26.478Z,99205.98
2023-05-21T16:43:28.836Z,99207.19
2023-05-21T16:44:31.296Z,99209.40
2023-05-21T16:45:35.547Z,99202.95
2023-05-21T16:46:37.912Z,99204.56
2023-05-21T16:47:40.346Z,99202.86
2023-05-21T16:48:42.805Z,99202.84
2023-05-21T16:49:45.333Z,99204.56
2023-05-21T16:50:47.862Z,99206.73
2023-05-21T16:51:52.042Z,99205.00
2023-05-21T16:52:56.052Z,99204.38
2023-05-21T16:53:58.588Z,99208.22
2023-05-21T16:55:01.048Z,99206.73
2023-05-21T16:56:03.550Z,99206.56
2023-05-21T16:57:06.060Z,99206.27
2023-05-21T16:58:08.559Z,99203.72
2023-05-21T16:59:12.650Z,99205.88
2023-05-21T17:00:16.638Z,99211.23
2023-05-21T17:01:20.708Z,99210.69
2023-05-21T17:02:22.983Z,99206.55
2023-05-21T17:03:25.425Z,99209.64
2023-05-21T17:04:27.889Z,99210.44
2023-05-21T17:05:32.001Z,99212.20
2023-05-21T17:06:34.392Z,99212.96
2023-05-21T17:07:38.497Z,99209.95
2023-05-21T17:08:42.500Z,99215.31
2023-05-21T17:09:46.414Z,99215.03
2023-05-21T17:10:48.791Z,99220.53
2023-05-21T17:11:52.866Z,99212.20
2023-05-21T17:12:55.200Z,99216.08
2023-05-21T17:13:57.692Z,99216.27
2023-05-21T17:15:00.195Z,99217.67
2023-05-21T17:16:02.836Z,99218.72
2023-05-21T17:17:05.298Z,99213.96
2023-05-21T17:18:07.863Z,99214.48
2023-05-21T17:19:11.954Z,99216.36
2023-05-21T17:20:14.251Z,99214.77
2023-05-21T17:21:16.806Z,99215.84
2023-05-21T17:22:20.932Z,99215.01
2023-05-21T17:23:24.876Z,99216.47
2023-05-21T17:24:27.232Z,99216.12
2023-05-21T17:25:32.941Z,99213.37
2023-05-21T17:26:35.282Z,99214.23
2023-05-21T17:27:39.214Z,99213.41
2023-05-21T17:28:43.243Z,99211.64
2023-05-21T17:29:45.578Z,99208.83
2023-05-21T17:30:50.029Z,99214.76
2023-05-21T17:31:53.966Z,99211.84
2023-05-21T17:32:56.319Z,99211.94
2023-05-21T17:33:58.761Z,99210.64
2023-05-21T17:35:02.821Z,99209.81
2023-05-21T17:36:05.204Z,99213.61
2023-05-21T17:37:09.245Z,99215.28
2023-05-21T17:38:11.613Z,99211.50
2023-05-21T17:39:14.080Z,99214.98
2023-05-21T17:40:16.547Z,99216.00
2023-05-21T17:41:19.029Z,99214.88
2023-05-21T17:42:21.547Z,99213.50
2023-05-21T17:43:24.043Z,99217.39
2023-05-21T17:44:28.184Z,99214.48
2023-05-21T17:45:32.202Z,99208.76
2023-05-21T17:46:36.111Z,99214.84
2023-05-21T17:47:40.048Z,99212.66
2023-05-21T17:48:44.021Z,99215.52
2023-05-21T17:49:46.381Z,99215.93
2023-05-21T17:50:48.877Z,99214.66
2023-05-21T17:51:51.377Z,99221.23
2023-05-21T17:52:53.855Z,99219.80
2023-05-21T17:53:57.934Z,99218.34
2023-05-21T17:55:00.282Z,99218.73
2023-05-21T17:56:04.378Z,99217.27
2023-05-21T17:57:06.726Z,99215.08
2023-05-21T17:58:09.217Z,99215.58
2023-05-21T17:59:13.337Z,99215.78
2023-05-21T18:00:15.690Z,99210.08
2023-05-21T18:01:22.018Z,99208.42
2023-05-21T18:02:25.832Z,99211.48
2023-05-21T18:03:29.745Z,99211.62
2023-05-21T18:04:33.779Z,99210.88
2023-05-21T18:05:36.247Z,99209.17
2023-05-21T18:06:38.481Z,99208.80
2023-05-21T18:07:40.960Z,99209.51
2023-05-21T18:08:43.466Z,99206.21
2023-05-21T18:09:47.587Z,99206.66
2023-05-21T18:10:50.002Z,99209.63
2023-05-21T18:11:52.543Z,99210.80
2023-05-21T18:12:54.990Z,99211.67